| Date | Time | Temp. (oF) | Dew Point (oF) | Rel. Hum. (%) | Press. (in.) | Wind Dir. | Wind Speed (mph) | Hourly Rainfall (in.) |
|
|---|---|---|---|---|---|---|---|---|---|
| 1 | 06/29 | 00:00 | 67 | 67 | 100 | 29.82 | S | 2 | 0.00 |
| 2 | 06/28 | 23:00 | 67 | 67 | 100 | 29.81 | N | 0 | 0.00 |
| 3 | 06/28 | 22:00 | 68 | 68 | 100 | 29.80 | SSW | 0 | 0.00 |
| 4 | 06/28 | 21:00 | 70 | 69 | 100 | 29.79 | SSE | 0 | 0.04 |
| 5 | 06/28 | 20:00 | 72 | 72 | 100 | 29.79 | SW | 5 | 0.00 |
| 6 | 06/28 | 19:00 | 73 | 72 | 100 | 29.75 | SSE | 3 | 0.01 |
| 7 | 06/28 | 18:00 | 71 | 71 | 100 | 29.78 | ESE | 5 | 0.04 |
| 8 | 06/28 | 17:00 | 80 | 76 | 90 | 29.76 | S | 3 | 0.00 |
| 9 | 06/28 | 16:00 | 82 | 76 | 84 | 29.76 | SE | 8 | 0.00 |
| 10 | 06/28 | 15:00 | 81 | 77 | 90 | 29.78 | SE | 9 | 0.00 |
| 11 | 06/28 | 14:00 | 79 | 78 | 98 | 29.82 | SSE | 4 | 0.00 |
| 12 | 06/28 | 13:00 | 77 | 77 | 100 | 29.84 | ESE | 4 | 0.00 |
| 13 | 06/28 | 12:00 | 75 | 75 | 100 | 29.86 | SE | 0 | 0.00 |
| 14 | 06/28 | 11:00 | 74 | 73 | 100 | 29.86 | N | 0 | 0.00 |
| 15 | 06/28 | 10:00 | 73 | 72 | 100 | 29.87 | SSE | 1 | 0.00 |
| 16 | 06/28 | 09:00 | 72 | 70 | 96 | 29.87 | SSE | 0 | 0.00 |
| 17 | 06/28 | 08:00 | 69 | 65 | 90 | 29.87 | E | 0 | 0.00 |
| 18 | 06/28 | 07:00 | 68 | 65 | 92 | 29.87 | E | 0 | 0.00 |
| 19 | 06/28 | 06:00 | 67 | 66 | 98 | 29.86 | E | 0 | 0.00 |
| 20 | 06/28 | 05:00 | 67 | 66 | 97 | 29.85 | E | 0 | 0.00 |
| 21 | 06/28 | 04:00 | 67 | 67 | 100 | 29.86 | E | 0 | 0.00 |
| 22 | 06/28 | 03:00 | 67 | 67 | 100 | 29.87 | NNE | 0 | 0.00 |
| 23 | 06/28 | 02:00 | 68 | 68 | 100 | 29.88 | NNE | 0 | 0.00 |
| 24 | 06/28 | 01:00 | 68 | 68 | 100 | 29.88 | SE | 0 | 0.00 |